sensor_id;sensor_type;location;lat;lon;timestamp;pressure;altitude;pressure_sealevel;temperature;humidity
2339;BME280;1180;51.438;6.978;2023-02-28T00:00:11;101677.09;;;4.76;63.37
2339;BME280;1180;51.438;6.978;2023-02-28T00:02:38;101671.03;;;4.88;63.30
2339;BME280;1180;51.438;6.978;2023-02-28T00:05:05;101671.81;;;4.93;62.74
2339;BME280;1180;51.438;6.978;2023-02-28T00:07:31;101669.22;;;4.96;62.76
2339;BME280;1180;51.438;6.978;2023-02-28T00:09:56;101667.53;;;4.98;62.46
2339;BME280;1180;51.438;6.978;2023-02-28T00:12:22;101670.97;;;4.93;62.49
2339;BME280;1180;51.438;6.978;2023-02-28T00:14:48;101664.13;;;4.98;62.69
2339;BME280;1180;51.438;6.978;2023-02-28T00:17:13;101668.44;;;4.93;62.30
2339;BME280;1180;51.438;6.978;2023-02-28T00:19:38;101670.03;;;5.01;61.92
2339;BME280;1180;51.438;6.978;2023-02-28T00:22:04;101678.53;;;5.00;61.91
2339;BME280;1180;51.438;6.978;2023-02-28T00:24:29;101670.13;;;4.94;61.88
2339;BME280;1180;51.438;6.978;2023-02-28T00:26:55;101670.22;;;4.87;61.57
2339;BME280;1180;51.438;6.978;2023-02-28T00:29:20;101665.94;;;4.88;62.06
2339;BME280;1180;51.438;6.978;2023-02-28T00:31:45;101670.13;;;4.92;61.92
2339;BME280;1180;51.438;6.978;2023-02-28T00:34:10;101679.69;;;4.74;62.17
2339;BME280;1180;51.438;6.978;2023-02-28T00:36:36;101672.75;;;4.87;62.14
2339;BME280;1180;51.438;6.978;2023-02-28T00:39:01;101673.53;;;4.93;61.91
2339;BME280;1180;51.438;6.978;2023-02-28T00:41:26;101677.06;;;4.81;62.07
2339;BME280;1180;51.438;6.978;2023-02-28T00:43:52;101673.66;;;4.82;62.05
2339;BME280;1180;51.438;6.978;2023-02-28T00:46:17;101674.63;;;4.71;62.46
2339;BME280;1180;51.438;6.978;2023-02-28T00:48:42;101676.41;;;4.63;62.81
2339;BME280;1180;51.438;6.978;2023-02-28T00:51:08;101673.81;;;4.69;62.75
2339;BME280;1180;51.438;6.978;2023-02-28T00:53:33;101678.94;;;4.63;62.62
2339;BME280;1180;51.438;6.978;2023-02-28T00:55:59;101678.94;;;4.65;62.92
2339;BME280;1180;51.438;6.978;2023-02-28T00:58:24;101680.66;;;4.62;62.96
2339;BME280;1180;51.438;6.978;2023-02-28T01:00:51;101689.94;;;4.67;62.73
2339;BME280;1180;51.438;6.978;2023-02-28T01:03:19;101692.41;;;4.73;62.64
2339;BME280;1180;51.438;6.978;2023-02-28T01:05:45;101685.75;;;4.64;62.66
2339;BME280;1180;51.438;6.978;2023-02-28T01:08:11;101692.59;;;4.56;62.79
2339;BME280;1180;51.438;6.978;2023-02-28T01:10:37;101693.38;;;4.62;63.01
2339;BME280;1180;51.438;6.978;2023-02-28T01:13:03;101691.63;;;4.69;62.80
2339;BME280;1180;51.438;6.978;2023-02-28T01:15:29;101691.47;;;4.82;62.15
2339;BME280;1180;51.438;6.978;2023-02-28T01:17:54;101692.50;;;4.63;62.72
2339;BME280;1180;51.438;6.978;2023-02-28T01:20:20;101693.53;;;4.48;62.69
2339;BME280;1180;51.438;6.978;2023-02-28T01:22:45;101688.59;;;4.31;63.96
2339;BME280;1180;51.438;6.978;2023-02-28T01:25:12;101695.38;;;4.34;64.28
2339;BME280;1180;51.438;6.978;2023-02-28T01:27:37;101693.69;;;4.30;64.12
2339;BME280;1180;51.438;6.978;2023-02-28T01:30:05;101693.72;;;4.27;64.39
2339;BME280;1180;51.438;6.978;2023-02-28T01:32:31;101689.50;;;4.26;63.88
2339;BME280;1180;51.438;6.978;2023-02-28T01:34:57;101691.28;;;4.19;64.43
2339;BME280;1180;51.438;6.978;2023-02-28T01:37:22;101697.34;;;4.04;64.88
2339;BME280;1180;51.438;6.978;2023-02-28T01:39:48;101692.19;;;4.10;64.80
2339;BME280;1180;51.438;6.978;2023-02-28T01:42:13;101691.38;;;4.07;64.91
2339;BME280;1180;51.438;6.978;2023-02-28T01:45:08;101677.84;;;4.04;64.79
2339;BME280;1180;51.438;6.978;2023-02-28T01:47:42;101682.13;;;4.01;64.88
2339;BME280;1180;51.438;6.978;2023-02-28T01:50:17;101682.22;;;3.85;65.48
2339;BME280;1180;51.438;6.978;2023-02-28T01:52:45;101675.44;;;3.87;65.83
2339;BME280;1180;51.438;6.978;2023-02-28T01:55:12;101673.81;;;3.80;65.90
2339;BME280;1180;51.438;6.978;2023-02-28T01:57:46;101674.66;;;3.79;66.23
2339;BME280;1180;51.438;6.978;2023-02-28T02:00:15;101673.69;;;3.97;65.63
2339;BME280;1180;51.438;6.978;2023-02-28T02:02:44;101670.34;;;3.92;65.63
2339;BME280;1180;51.438;6.978;2023-02-28T02:05:14;101666.94;;;3.92;66.11
2339;BME280;1180;51.438;6.978;2023-02-28T02:07:42;101669.44;;;3.96;65.55
2339;BME280;1180;51.438;6.978;2023-02-28T02:13:05;101655.97;;;3.86;65.88
2339;BME280;1180;51.438;6.978;2023-02-28T02:15:34;101651.75;;;3.85;66.02
2339;BME280;1180;51.438;6.978;2023-02-28T02:18:29;101651.72;;;3.88;65.95
2339;BME280;1180;51.438;6.978;2023-02-28T02:26:52;101641.66;;;3.79;65.93
2339;BME280;1180;51.438;6.978;2023-02-28T02:29:41;101634.16;;;3.64;66.35
2339;BME280;1180;51.438;6.978;2023-02-28T02:33:03;101639.25;;;3.62;66.63
2339;BME280;1180;51.438;6.978;2023-02-28T02:35:43;101645.09;;;3.70;66.34
2339;BME280;1180;51.438;6.978;2023-02-28T02:40:56;101646.78;;;3.71;66.46
2339;BME280;1180;51.438;6.978;2023-02-28T02:43:52;101640.84;;;3.77;66.31
2339;BME280;1180;51.438;6.978;2023-02-28T02:46:31;101643.34;;;3.80;65.53
2339;BME280;1180;51.438;6.978;2023-02-28T02:49:00;101645.22;;;3.56;66.28
2339;BME280;1180;51.438;6.978;2023-02-28T02:51:30;101647.75;;;3.58;66.52
2339;BME280;1180;51.438;6.978;2023-02-28T02:54:05;101646.75;;;3.79;65.88
2339;BME280;1180;51.438;6.978;2023-02-28T02:56:34;101647.75;;;3.56;66.41
2339;BME280;1180;51.438;6.978;2023-02-28T02:59:03;101643.59;;;3.46;67.00
2339;BME280;1180;51.438;6.978;2023-02-28T03:01:31;101644.34;;;3.57;66.44
2339;BME280;1180;51.438;6.978;2023-02-28T03:03:59;101642.75;;;3.47;66.46
2339;BME280;1180;51.438;6.978;2023-02-28T03:06:25;101648.53;;;3.68;66.13
2339;BME280;1180;51.438;6.978;2023-02-28T03:08:51;101648.56;;;3.60;65.82
2339;BME280;1180;51.438;6.978;2023-02-28T03:11:17;101646.03;;;3.60;65.73
2339;BME280;1180;51.438;6.978;2023-02-28T03:27:42;101635.25;;;3.31;64.43
2339;BME280;1180;51.438;6.978;2023-02-28T03:30:18;101637.81;;;3.24;63.75
2339;BME280;1180;51.438;6.978;2023-02-28T03:32:57;101636.09;;;3.34;64.18
2339;BME280;1180;51.438;6.978;2023-02-28T03:35:27;101645.34;;;3.38;64.02
2339;BME280;1180;51.438;6.978;2023-02-28T03:38:17;101640.22;;;3.44;63.54
2339;BME280;1180;51.438;6.978;2023-02-28T03:40:51;101642.84;;;3.35;63.79
2339;BME280;1180;51.438;6.978;2023-02-28T03:43:27;101642.78;;;3.44;63.63
2339;BME280;1180;51.438;6.978;2023-02-28T03:45:55;101646.09;;;3.54;63.26
2339;BME280;1180;51.438;6.978;2023-02-28T03:48:30;101646.78;;;3.73;62.33
2339;BME280;1180;51.438;6.978;2023-02-28T03:50:58;101651.84;;;3.74;62.06
2339;BME280;1180;51.438;6.978;2023-02-28T03:53:29;101652.66;;;3.78;61.70
2339;BME280;1180;51.438;6.978;2023-02-28T03:58:44;101646.91;;;3.57;61.83
2339;BME280;1180;51.438;6.978;2023-02-28T04:01:16;101646.84;;;3.67;61.72
2339;BME280;1180;51.438;6.978;2023-02-28T04:03:44;101650.22;;;3.67;61.67
2339;BME280;1180;51.438;6.978;2023-02-28T04:06:16;101646.03;;;3.60;61.97
2339;BME280;1180;51.438;6.978;2023-02-28T04:08:43;101641.88;;;3.53;62.09
2339;BME280;1180;51.438;6.978;2023-02-28T04:13:43;101646.09;;;3.47;62.06
2339;BME280;1180;51.438;6.978;2023-02-28T04:16:09;101644.53;;;3.32;62.47
2339;BME280;1180;51.438;6.978;2023-02-28T04:18:38;101642.78;;;3.41;62.94
2339;BME280;1180;51.438;6.978;2023-02-28T04:21:08;101644.44;;;3.43;62.70
2339;BME280;1180;51.438;6.978;2023-02-28T04:23:34;101647.09;;;3.32;62.67
2339;BME280;1180;51.438;6.978;2023-02-28T04:25:59;101645.31;;;3.41;62.61
2339;BME280;1180;51.438;6.978;2023-02-28T04:28:25;101649.63;;;3.31;62.66
2339;BME280;1180;51.438;6.978;2023-02-28T04:30:55;101652.94;;;3.39;62.44
2339;BME280;1180;51.438;6.978;2023-02-28T04:33:21;101649.63;;;3.31;62.77
2339;BME280;1180;51.438;6.978;2023-02-28T04:35:46;101648.72;;;3.40;62.56
2339;BME280;1180;51.438;6.978;2023-02-28T04:38:12;101657.16;;;3.40;62.32
2339;BME280;1180;51.438;6.978;2023-02-28T04:40:37;101657.13;;;3.43;62.43
2339;BME280;1180;51.438;6.978;2023-02-28T04:43:02;101664.84;;;3.31;62.28
2339;BME280;1180;51.438;6.978;2023-02-28T04:45:28;101660.69;;;3.14;62.70
2339;BME280;1180;51.438;6.978;2023-02-28T04:47:57;101665.81;;;3.10;63.03
2339;BME280;1180;51.438;6.978;2023-02-28T04:50:23;101672.59;;;3.05;63.50
2339;BME280;1180;51.438;6.978;2023-02-28T04:52:48;101666.56;;;3.24;62.88
2339;BME280;1180;51.438;6.978;2023-02-28T04:55:14;101666.59;;;3.18;62.51
2339;BME280;1180;51.438;6.978;2023-02-28T04:57:39;101664.09;;;3.12;62.79
2339;BME280;1180;51.438;6.978;2023-02-28T05:00:05;101661.63;;;3.01;63.48
2339;BME280;1180;51.438;6.978;2023-02-28T05:02:34;101664.16;;;3.02;63.25
2339;BME280;1180;51.438;6.978;2023-02-28T05:05:00;101655.69;;;3.03;63.40
2339;BME280;1180;51.438;6.978;2023-02-28T05:07:25;101663.28;;;3.05;62.86
2339;BME280;1180;51.438;6.978;2023-02-28T05:09:51;101653.94;;;3.16;62.72
2339;BME280;1180;51.438;6.978;2023-02-28T05:12:16;101665.78;;;3.11;62.68
2339;BME280;1180;51.438;6.978;2023-02-28T05:14:41;101668.44;;;2.89;63.26
2339;BME280;1180;51.438;6.978;2023-02-28T05:17:08;101663.31;;;2.94;63.62
2339;BME280;1180;51.438;6.978;2023-02-28T05:19:33;101669.22;;;3.01;63.45
2339;BME280;1180;51.438;6.978;2023-02-28T05:21:59;101674.22;;;3.15;62.77
2339;BME280;1180;51.438;6.978;2023-02-28T05:24:24;101674.19;;;3.21;62.27
2339;BME280;1180;51.438;6.978;2023-02-28T05:29:21;101680.09;;;3.25;62.08
2339;BME280;1180;51.438;6.978;2023-02-28T05:31:47;101677.59;;;3.17;62.16
2339;BME280;1180;51.438;6.978;2023-02-28T05:34:12;101680.97;;;3.21;62.53
2339;BME280;1180;51.438;6.978;2023-02-28T05:36:40;101681.88;;;3.09;62.07
2339;BME280;1180;51.438;6.978;2023-02-28T05:39:06;101683.50;;;3.21;61.93
2339;BME280;1180;51.438;6.978;2023-02-28T05:41:39;101681.94;;;2.92;62.49
2339;BME280;1180;51.438;6.978;2023-02-28T05:44:05;101684.47;;;2.90;63.17
2339;BME280;1180;51.438;6.978;2023-02-28T05:46:30;101688.72;;;2.85;62.95
2339;BME280;1180;51.438;6.978;2023-02-28T05:48:55;101688.81;;;2.69;63.06
2339;BME280;1180;51.438;6.978;2023-02-28T05:51:23;101693.03;;;2.70;63.83
2339;BME280;1180;51.438;6.978;2023-02-28T05:53:48;101688.75;;;2.79;63.56
2339;BME280;1180;51.438;6.978;2023-02-28T05:56:14;101685.38;;;2.84;63.28
2339;BME280;1180;51.438;6.978;2023-02-28T05:58:39;101689.56;;;2.88;62.93
2339;BME280;1180;51.438;6.978;2023-02-28T06:01:44;101691.25;;;2.89;62.74
2339;BME280;1180;51.438;6.978;2023-02-28T06:04:14;101692.88;;;3.06;62.53
2339;BME280;1180;51.438;6.978;2023-02-28T06:06:46;101697.84;;;3.23;66.57
2339;BME280;1180;51.438;6.978;2023-02-28T06:09:12;101701.22;;;3.31;62.95
2339;BME280;1180;51.438;6.978;2023-02-28T06:11:37;101704.59;;;3.29;62.18
2339;BME280;1180;51.438;6.978;2023-02-28T06:14:03;101703.84;;;3.10;62.35
2339;BME280;1180;51.438;6.978;2023-02-28T06:16:31;101706.38;;;3.13;62.01
2339;BME280;1180;51.438;6.978;2023-02-28T06:19:00;101708.91;;;3.13;62.22
2339;BME280;1180;51.438;6.978;2023-02-28T06:21:27;101711.47;;;3.05;62.61
2339;BME280;1180;51.438;6.978;2023-02-28T06:23:53;101721.63;;;2.97;62.26
2339;BME280;1180;51.438;6.978;2023-02-28T06:26:19;101719.09;;;3.02;62.16
2339;BME280;1180;51.438;6.978;2023-02-28T06:28:44;101720.75;;;3.11;62.16
2339;BME280;1180;51.438;6.978;2023-02-28T06:31:12;101723.31;;;3.05;62.45
2339;BME280;1180;51.438;6.978;2023-02-28T06:33:38;101719.97;;;2.93;62.67
2339;BME280;1180;51.438;6.978;2023-02-28T06:36:05;101725.06;;;2.95;62.51
2339;BME280;1180;51.438;6.978;2023-02-28T06:38:31;101722.53;;;2.87;62.42
2339;BME280;1180;51.438;6.978;2023-02-28T06:40:58;101723.34;;;3.01;62.47
2339;BME280;1180;51.438;6.978;2023-02-28T06:43:25;101725.03;;;2.93;62.06
2339;BME280;1180;51.438;6.978;2023-02-28T06:45:54;101728.44;;;2.98;62.09
2339;BME280;1180;51.438;6.978;2023-02-28T06:48:19;101734.31;;;3.05;61.99
2339;BME280;1180;51.438;6.978;2023-02-28T06:50:45;101727.59;;;2.92;62.07
2339;BME280;1180;51.438;6.978;2023-02-28T06:53:10;101738.56;;;2.92;62.20
2339;BME280;1180;51.438;6.978;2023-02-28T06:55:38;101729.28;;;2.91;62.20
2339;BME280;1180;51.438;6.978;2023-02-28T06:58:03;101733.47;;;2.95;62.14
2339;BME280;1180;51.438;6.978;2023-02-28T07:00:38;101736.03;;;2.94;61.90
2339;BME280;1180;51.438;6.978;2023-02-28T07:03:03;101730.97;;;2.91;61.96
2339;BME280;1180;51.438;6.978;2023-02-28T07:05:29;101730.13;;;2.93;62.24
2339;BME280;1180;51.438;6.978;2023-02-28T07:07:54;101732.63;;;3.01;61.96
2339;BME280;1180;51.438;6.978;2023-02-28T07:10:20;101734.34;;;2.96;61.80
2339;BME280;1180;51.438;6.978;2023-02-28T07:12:45;101735.19;;;2.98;61.94
2339;BME280;1180;51.438;6.978;2023-02-28T07:15:10;101732.59;;;3.12;61.96
2339;BME280;1180;51.438;6.978;2023-02-28T07:17:36;101730.03;;;3.15;61.51
2339;BME280;1180;51.438;6.978;2023-02-28T07:20:01;101738.50;;;3.17;61.37
2339;BME280;1180;51.438;6.978;2023-02-28T07:22:29;101741.03;;;3.12;61.25
2339;BME280;1180;51.438;6.978;2023-02-28T07:24:55;101739.41;;;3.00;61.64
2339;BME280;1180;51.438;6.978;2023-02-28T07:27:20;101744.41;;;3.11;61.71
2339;BME280;1180;51.438;6.978;2023-02-28T07:29:49;101750.38;;;3.02;61.39
2339;BME280;1180;51.438;6.978;2023-02-28T07:32:15;101743.69;;;2.84;62.01
2339;BME280;1180;51.438;6.978;2023-02-28T07:34:40;101747.88;;;2.99;62.58
2339;BME280;1180;51.438;6.978;2023-02-28T07:37:06;101752.03;;;3.13;61.52
2339;BME280;1180;51.438;6.978;2023-02-28T07:39:31;101749.47;;;3.19;61.21
2339;BME280;1180;51.438;6.978;2023-02-28T07:41:56;101751.19;;;3.15;60.70
2339;BME280;1180;51.438;6.978;2023-02-28T07:44:22;101751.19;;;3.18;61.03
2339;BME280;1180;51.438;6.978;2023-02-28T07:46:47;101751.16;;;3.22;60.68
2339;BME280;1180;51.438;6.978;2023-02-28T07:49:12;101746.91;;;3.25;60.24
2339;BME280;1180;51.438;6.978;2023-02-28T07:51:38;101748.59;;;3.25;60.31
2339;BME280;1180;51.438;6.978;2023-02-28T07:54:03;101752.03;;;3.16;60.27
2339;BME280;1180;51.438;6.978;2023-02-28T07:56:29;101751.16;;;3.17;60.46
2339;BME280;1180;51.438;6.978;2023-02-28T07:58:54;101750.28;;;3.26;60.13
2339;BME280;1180;51.438;6.978;2023-02-28T08:01:20;101763.78;;;3.39;60.14
2339;BME280;1180;51.438;6.978;2023-02-28T08:03:45;101757.03;;;3.33;58.66
2339;BME280;1180;51.438;6.978;2023-02-28T08:06:17;101757.81;;;3.41;58.35
2339;BME280;1180;51.438;6.978;2023-02-28T08:08:44;101753.59;;;3.45;58.15
2339;BME280;1180;51.438;6.978;2023-02-28T08:11:09;101765.41;;;3.54;57.90
2339;BME280;1180;51.438;6.978;2023-02-28T08:13:35;101768.72;;;3.60;57.54
2339;BME280;1180;51.438;6.978;2023-02-28T08:16:01;101770.41;;;3.68;56.27
2339;BME280;1180;51.438;6.978;2023-02-28T08:18:27;101772.13;;;3.56;56.35
2339;BME280;1180;51.438;6.978;2023-02-28T08:20:52;101774.72;;;3.50;56.39
2339;BME280;1180;51.438;6.978;2023-02-28T08:23:17;101769.53;;;3.69;56.54
2339;BME280;1180;51.438;6.978;2023-02-28T08:25:43;101772.03;;;3.75;56.33
2339;BME280;1180;51.438;6.978;2023-02-28T08:28:08;101774.53;;;3.80;56.35
2339;BME280;1180;51.438;6.978;2023-02-28T08:30:33;101766.03;;;3.90;56.33
2339;BME280;1180;51.438;6.978;2023-02-28T08:32:58;101765.22;;;3.79;57.24
2339;BME280;1180;51.438;6.978;2023-02-28T08:35:24;101773.94;;;3.39;58.10
2339;BME280;1180;51.438;6.978;2023-02-28T08:37:52;101767.19;;;3.28;59.02
2339;BME280;1180;51.438;6.978;2023-02-28T08:40:18;101761.25;;;3.36;58.17
2339;BME280;1180;51.438;6.978;2023-02-28T08:42:47;101762.94;;;3.32;58.35
2339;BME280;1180;51.438;6.978;2023-02-28T08:45:14;101762.94;;;3.37;58.24
2339;BME280;1180;51.438;6.978;2023-02-28T08:47:40;101769.66;;;3.42;58.24
2339;BME280;1180;51.438;6.978;2023-02-28T08:50:06;101766.25;;;3.53;57.40
2339;BME280;1180;51.438;6.978;2023-02-28T08:52:31;101753.50;;;3.60;57.28
2339;BME280;1180;51.438;6.978;2023-02-28T08:54:57;101760.94;;;3.90;57.03
2339;BME280;1180;51.438;6.978;2023-02-28T08:57:22;101759.38;;;3.72;56.75
2339;BME280;1180;51.438;6.978;2023-02-28T08:59:47;101761.09;;;3.60;56.72
2339;BME280;1180;51.438;6.978;2023-02-28T09:02:14;101761.91;;;3.72;56.70
2339;BME280;1180;51.438;6.978;2023-02-28T09:04:40;101759.38;;;3.69;56.09
2339;BME280;1180;51.438;6.978;2023-02-28T09:07:06;101753.28;;;3.95;55.14
2339;BME280;1180;51.438;6.978;2023-02-28T09:09:32;101755.66;;;4.16;54.62
2339;BME280;1180;51.438;6.978;2023-02-28T09:11:58;101751.34;;;4.25;53.99
2339;BME280;1180;51.438;6.978;2023-02-28T09:14:23;101757.25;;;4.28;53.02
2339;BME280;1180;51.438;6.978;2023-02-28T09:16:48;101747.94;;;4.26;53.30
2339;BME280;1180;51.438;6.978;2023-02-28T09:19:14;101747.34;;;3.97;53.02
2339;BME280;1180;51.438;6.978;2023-02-28T09:21:39;101750.53;;;4.24;53.56
2339;BME280;1180;51.438;6.978;2023-02-28T09:24:05;101749.72;;;4.19;50.99
2339;BME280;1180;51.438;6.978;2023-02-28T09:26:30;101748.63;;;4.45;51.35
2339;BME280;1180;51.438;6.978;2023-02-28T09:28:56;101747.66;;;4.57;51.64
2339;BME280;1180;51.438;6.978;2023-02-28T09:31:26;101749.84;;;4.93;51.16
2339;BME280;1180;51.438;6.978;2023-02-28T09:33:53;101756.44;;;5.11;50.86
2339;BME280;1180;51.438;6.978;2023-02-28T09:36:19;101743.88;;;4.97;50.72
2339;BME280;1180;51.438;6.978;2023-02-28T09:38:45;101753.53;;;4.63;51.32
2339;BME280;1180;51.438;6.978;2023-02-28T09:41:24;101744.81;;;4.89;51.30
2339;BME280;1180;51.438;6.978;2023-02-28T09:43:55;101745.63;;;4.90;49.34
2339;BME280;1180;51.438;6.978;2023-02-28T09:46:39;101753.19;;;4.99;48.88
2339;BME280;1180;51.438;6.978;2023-02-28T09:49:37;101746.34;;;5.03;48.76
2339;BME280;1180;51.438;6.978;2023-02-28T09:52:07;101751.38;;;5.08;47.67
2339;BME280;1180;51.438;6.978;2023-02-28T09:54:35;101752.13;;;5.17;47.33
2339;BME280;1180;51.438;6.978;2023-02-28T09:57:02;101750.72;;;4.90;47.02
2339;BME280;1180;51.438;6.978;2023-02-28T09:59:48;101756.88;;;4.69;47.16
2339;BME280;1180;51.438;6.978;2023-02-28T10:10:51;101733.41;;;5.22;45.51
2339;BME280;1180;51.438;6.978;2023-02-28T10:16:03;101737.03;;;5.00;45.69
2339;BME280;1180;51.438;6.978;2023-02-28T10:18:41;101729.00;;;5.33;45.65
2339;BME280;1180;51.438;6.978;2023-02-28T10:21:17;101729.91;;;5.27;45.72
2339;BME280;1180;51.438;6.978;2023-02-28T10:23:44;101733.63;;;5.67;45.23
2339;BME280;1180;51.438;6.978;2023-02-28T10:26:14;101737.16;;;5.57;45.06
2339;BME280;1180;51.438;6.978;2023-02-28T10:28:44;101729.44;;;5.64;45.16
2339;BME280;1180;51.438;6.978;2023-02-28T10:31:18;101731.13;;;5.62;45.32
2339;BME280;1180;51.438;6.978;2023-02-28T10:33:44;101732.91;;;5.57;45.14
2339;BME280;1180;51.438;6.978;2023-02-28T10:36:18;101730.34;;;5.57;44.80
2339;BME280;1180;51.438;6.978;2023-02-28T10:38:46;101725.25;;;5.57;44.65
2339;BME280;1180;51.438;6.978;2023-02-28T10:41:31;101731.31;;;5.50;45.33
2339;BME280;1180;51.438;6.978;2023-02-28T10:44:14;101719.91;;;5.76;45.01
2339;BME280;1180;51.438;6.978;2023-02-28T10:46:41;101717.22;;;5.85;44.76
2339;BME280;1180;51.438;6.978;2023-02-28T10:49:27;101719.31;;;6.15;45.16
2339;BME280;1180;51.438;6.978;2023-02-28T10:51:59;101721.81;;;6.18;44.12
2339;BME280;1180;51.438;6.978;2023-02-28T10:54:34;101713.56;;;6.03;44.04
2339;BME280;1180;51.438;6.978;2023-02-28T10:57:22;101709.38;;;5.98;43.35
2339;BME280;1180;51.438;6.978;2023-02-28T11:00:12;101707.00;;;5.85;43.50
2339;BME280;1180;51.438;6.978;2023-02-28T11:02:38;101712.69;;;6.04;44.17
2339;BME280;1180;51.438;6.978;2023-02-28T11:05:32;101705.22;;;5.90;43.10
2339;BME280;1180;51.438;6.978;2023-02-28T11:08:12;101701.84;;;5.90;42.56
2339;BME280;1180;51.438;6.978;2023-02-28T11:10:39;101705.53;;;5.70;42.66
2339;BME280;1180;51.438;6.978;2023-02-28T11:13:05;101711.78;;;5.51;42.30
2339;BME280;1180;51.438;6.978;2023-02-28T11:15:33;101707.63;;;5.45;42.63
2339;BME280;1180;51.438;6.978;2023-02-28T11:20:26;101707.63;;;5.43;43.11
2339;BME280;1180;51.438;6.978;2023-02-28T11:22:55;101704.78;;;5.67;43.52
2339;BME280;1180;51.438;6.978;2023-02-28T11:25:26;101692.59;;;5.86;43.18
2339;BME280;1180;51.438;6.978;2023-02-28T11:27:57;101707.00;;;5.87;42.52
2339;BME280;1180;51.438;6.978;2023-02-28T11:30:30;101701.91;;;5.85;43.00
2339;BME280;1180;51.438;6.978;2023-02-28T11:32:56;101705.16;;;5.97;42.92
2339;BME280;1180;51.438;6.978;2023-02-28T11:37:53;101698.66;;;5.77;42.66
2339;BME280;1180;51.438;6.978;2023-02-28T11:40:23;101699.31;;;5.88;42.76
2339;BME280;1180;51.438;6.978;2023-02-28T11:43:13;101701.25;;;5.72;42.48
2339;BME280;1180;51.438;6.978;2023-02-28T11:45:58;101710.16;;;5.45;43.60
2339;BME280;1180;51.438;6.978;2023-02-28T11:51:32;101703.66;;;5.83;42.79
2339;BME280;1180;51.438;6.978;2023-02-28T11:54:08;101692.66;;;5.79;43.23
2339;BME280;1180;51.438;6.978;2023-02-28T11:56:46;101699.88;;;6.09;43.17
2339;BME280;1180;51.438;6.978;2023-02-28T12:02:23;101694.41;;;6.31;43.19
2339;BME280;1180;51.438;6.978;2023-02-28T12:05:11;101701.75;;;6.46;43.19
2339;BME280;1180;51.438;6.978;2023-02-28T12:11:04;101682.97;;;6.52;42.50
2339;BME280;1180;51.438;6.978;2023-02-28T12:13:26;101679.88;;;6.36;42.98
2339;BME280;1180;51.438;6.978;2023-02-28T12:21:40;101664.91;;;6.63;42.61
2339;BME280;1180;51.438;6.978;2023-02-28T12:26:40;101658.97;;;7.03;42.42
2339;BME280;1180;51.438;6.978;2023-02-28T12:29:17;101659.78;;;7.05;41.94
2339;BME280;1180;51.438;6.978;2023-02-28T12:31:51;101662.22;;;7.10;42.41
2339;BME280;1180;51.438;6.978;2023-02-28T12:34:45;101643.09;;;7.28;41.55
2339;BME280;1180;51.438;6.978;2023-02-28T12:37:22;101645.84;;;7.20;41.67
2339;BME280;1180;51.438;6.978;2023-02-28T12:39:54;101643.84;;;7.33;41.61
2339;BME280;1180;51.438;6.978;2023-02-28T12:42:28;101629.31;;;7.35;41.43
2339;BME280;1180;51.438;6.978;2023-02-28T12:47:42;101632.13;;;7.25;40.98
2339;BME280;1180;51.438;6.978;2023-02-28T12:50:10;101635.72;;;7.16;41.15
2339;BME280;1180;51.438;6.978;2023-02-28T12:55:11;101629.00;;;7.12;41.82
2339;BME280;1180;51.438;6.978;2023-02-28T13:00:34;101617.31;;;7.39;42.05
2339;BME280;1180;51.438;6.978;2023-02-28T13:11:41;101613.03;;;7.02;42.49
2339;BME280;1180;51.438;6.978;2023-02-28T13:19:33;101602.72;;;7.79;41.56
2339;BME280;1180;51.438;6.978;2023-02-28T13:22:00;101602.81;;;8.07;41.46
2339;BME280;1180;51.438;6.978;2023-02-28T13:24:56;101587.44;;;8.09;41.50
2339;BME280;1180;51.438;6.978;2023-02-28T13:29:49;101585.75;;;8.08;40.96
2339;BME280;1180;51.438;6.978;2023-02-28T13:39:58;101589.16;;;7.75;42.08
2339;BME280;1180;51.438;6.978;2023-02-28T13:47:39;101580.13;;;7.95;42.19
2339;BME280;1180;51.438;6.978;2023-02-28T13:55:26;101570.72;;;8.29;42.15
2339;BME280;1180;51.438;6.978;2023-02-28T14:06:29;101578.34;;;7.99;43.13
2339;BME280;1180;51.438;6.978;2023-02-28T14:11:44;101569.66;;;8.66;43.80
2339;BME280;1180;51.438;6.978;2023-02-28T14:17:06;101570.91;;;8.52;42.81
2339;BME280;1180;51.438;6.978;2023-02-28T14:19:33;101580.78;;;8.35;43.49
2339;BME280;1180;51.438;6.978;2023-02-28T14:28:12;101579.72;;;7.79;44.40
2339;BME280;1180;51.438;6.978;2023-02-28T14:30:52;101575.03;;;7.95;44.21
2339;BME280;1180;51.438;6.978;2023-02-28T14:36:17;101576.34;;;7.44;45.07
2339;BME280;1180;51.438;6.978;2023-02-28T14:38:51;101575.78;;;7.99;44.41
2339;BME280;1180;51.438;6.978;2023-02-28T14:41:36;101562.22;;;8.27;44.42
2339;BME280;1180;51.438;6.978;2023-02-28T14:46:46;101562.06;;;8.33;43.36
2339;BME280;1180;51.438;6.978;2023-02-28T14:49:27;101556.31;;;8.56;43.14
2339;BME280;1180;51.438;6.978;2023-02-28T14:52:12;101558.78;;;8.28;43.62
2339;BME280;1180;51.438;6.978;2023-02-28T14:54:40;101557.69;;;7.73;44.17
2339;BME280;1180;51.438;6.978;2023-02-28T14:57:05;101566.84;;;7.82;44.29
2339;BME280;1180;51.438;6.978;2023-02-28T14:59:35;101564.38;;;7.79;44.46
2339;BME280;1180;51.438;6.978;2023-02-28T15:04:43;101564.38;;;8.10;44.68
2339;BME280;1180;51.438;6.978;2023-02-28T15:07:14;101562.69;;;8.41;44.59
2339;BME280;1180;51.438;6.978;2023-02-28T15:09:39;101562.59;;;8.44;43.33
2339;BME280;1180;51.438;6.978;2023-02-28T15:12:05;101557.44;;;8.46;43.52
2339;BME280;1180;51.438;6.978;2023-02-28T15:14:31;101557.31;;;8.50;43.62
2339;BME280;1180;51.438;6.978;2023-02-28T15:17:01;101564.22;;;7.85;43.95
2339;BME280;1180;51.438;6.978;2023-02-28T15:19:34;101556.72;;;7.79;45.33
2339;BME280;1180;51.438;6.978;2023-02-28T15:22:07;101544.44;;;8.53;44.03
2339;BME280;1180;51.438;6.978;2023-02-28T15:24:41;101544.41;;;8.55;43.43
2339;BME280;1180;51.438;6.978;2023-02-28T15:27:18;101551.91;;;8.60;43.99
2339;BME280;1180;51.438;6.978;2023-02-28T15:29:48;101552.50;;;8.70;43.28
2339;BME280;1180;51.438;6.978;2023-02-28T15:34:53;101547.41;;;8.38;42.62
2339;BME280;1180;51.438;6.978;2023-02-28T15:40:23;101541.41;;;8.98;42.29
2339;BME280;1180;51.438;6.978;2023-02-28T15:45:37;101545.50;;;9.30;42.21
2339;BME280;1180;51.438;6.978;2023-02-28T15:48:05;101542.13;;;9.79;41.81
2339;BME280;1180;51.438;6.978;2023-02-28T15:50:31;101540.25;;;9.84;41.25
2339;BME280;1180;51.438;6.978;2023-02-28T15:52:56;101543.69;;;9.83;41.12
2339;BME280;1180;51.438;6.978;2023-02-28T15:55:28;101540.47;;;9.52;41.33
2339;BME280;1180;51.438;6.978;2023-02-28T15:57:57;101540.41;;;9.79;41.57
2339;BME280;1180;51.438;6.978;2023-02-28T16:00:30;101537.63;;;10.09;41.47